createdAt,value
2022-08-22T00:00:14.973Z,65.20
2022-08-22T00:02:58.482Z,78.90
2022-08-22T00:03:02.385Z,79.90
2022-08-22T00:03:26.451Z,63.70
2022-08-22T00:06:33.539Z,62.60
2022-08-22T00:09:30.366Z,61.40
2022-08-22T00:12:10.305Z,61.40
2022-08-22T00:14:47.066Z,63.20
2022-08-22T00:17:15.320Z,64.50
2022-08-22T00:19:51.510Z,65.80
2022-08-22T00:22:36.342Z,67.00
2022-08-22T00:25:26.314Z,67.70
2022-08-22T00:28:05.370Z,67.70
2022-08-22T00:30:48.272Z,64.60
2022-08-22T00:34:17.991Z,63.10
2022-08-22T00:36:57.038Z,63.60
2022-08-22T00:40:03.355Z,63.80
2022-08-22T00:42:57.795Z,61.80
2022-08-22T00:46:03.559Z,62.30
2022-08-22T00:48:37.083Z,65.40
2022-08-22T00:51:42.300Z,66.50
2022-08-22T00:54:34.936Z,65.90
2022-08-22T00:57:10.538Z,67.10
2022-08-22T00:59:53.880Z,68.50
2022-08-22T01:02:34.054Z,68.60
2022-08-22T01:05:37.333Z,67.40
2022-08-22T01:08:28.576Z,67.60
2022-08-22T01:11:22.032Z,68.70
2022-08-22T01:14:00.886Z,69.10
2022-08-22T01:16:37.711Z,67.50
2022-08-22T01:19:29.909Z,68.00
2022-08-22T01:22:19.387Z,69.50
2022-08-22T01:25:26.255Z,70.10
2022-08-22T01:28:32.420Z,68.30
2022-08-22T01:31:32.232Z,69.00
2022-08-22T01:34:27.974Z,70.80
2022-08-22T01:36:56.200Z,72.10
2022-08-22T01:39:45.391Z,70.70
2022-08-22T01:42:25.497Z,71.30
2022-08-22T01:45:15.030Z,73.10
2022-08-22T01:48:00.431Z,75.60
2022-08-22T01:50:32.130Z,74.10
2022-08-22T01:53:40.018Z,72.70
2022-08-22T01:56:22.211Z,74.30
2022-08-22T01:59:02.957Z,76.10
2022-08-22T02:02:02.655Z,75.60
2022-08-22T02:05:03.451Z,73.20
2022-08-22T02:08:23.464Z,73.90
2022-08-22T02:11:06.608Z,76.00
2022-08-22T02:13:59.184Z,76.90
2022-08-22T02:16:48.754Z,74.80
2022-08-22T02:19:16.738Z,73.60
2022-08-22T02:21:52.117Z,74.90
2022-08-22T02:24:44.108Z,76.00
2022-08-22T02:27:39.878Z,75.90
2022-08-22T02:30:16.080Z,74.00
2022-08-22T02:33:07.967Z,73.80
2022-08-22T02:35:40.395Z,75.50
2022-08-22T02:38:30.424Z,77.10
2022-08-22T02:41:36.986Z,76.50
2022-08-22T02:44:30.957Z,73.70
2022-08-22T02:47:08.639Z,74.90
2022-08-22T02:49:44.931Z,75.60
2022-08-22T02:52:25.929Z,76.30
2022-08-22T02:55:21.816Z,73.60
2022-08-22T02:58:01.551Z,72.10
2022-08-22T03:00:42.952Z,73.90
2022-08-22T03:03:25.254Z,75.20
2022-08-22T03:06:27.421Z,77.20
2022-08-22T03:09:21.311Z,75.00
2022-08-22T03:12:20.157Z,72.80
2022-08-22T03:14:57.333Z,74.50
2022-08-22T03:17:40.780Z,75.90
2022-08-22T03:20:16.064Z,75.80
2022-08-22T03:22:54.685Z,72.90
2022-08-22T03:26:00.915Z,70.70
2022-08-22T03:28:37.819Z,71.40
2022-08-22T03:31:22.520Z,72.60
2022-08-22T03:34:25.356Z,74.10
2022-08-22T03:37:21.106Z,71.90
2022-08-22T03:39:52.097Z,70.30
2022-08-22T03:42:49.018Z,71.00
2022-08-22T03:45:29.195Z,72.30
2022-08-22T03:48:28.184Z,73.60
2022-08-22T03:51:24.356Z,71.80
2022-08-22T03:53:52.391Z,70.30
2022-08-22T03:56:26.385Z,71.40
2022-08-22T03:58:57.655Z,72.60
2022-08-22T04:01:43.693Z,73.60
2022-08-22T04:04:12.180Z,72.30
2022-08-22T04:07:00.055Z,70.50
2022-08-22T04:09:57.148Z,71.30
2022-08-22T04:12:50.204Z,72.50
2022-08-22T04:15:39.720Z,74.30
2022-08-22T04:18:20.129Z,73.40
2022-08-22T04:20:51.311Z,70.80
2022-08-22T04:23:47.380Z,71.10
2022-08-22T04:26:39.025Z,72.50
2022-08-22T04:29:16.904Z,74.10
2022-08-22T04:31:54.145Z,74.60
2022-08-22T04:34:34.227Z,72.50
2022-08-22T04:37:31.360Z,71.30
2022-08-22T04:40:20.451Z,73.00
2022-08-22T04:43:03.669Z,74.50
2022-08-22T04:45:49.624Z,76.30
2022-08-22T04:48:32.994Z,73.30
2022-08-22T04:51:16.240Z,71.40
2022-08-22T04:54:07.276Z,72.60
2022-08-22T04:57:15.109Z,74.00
2022-08-22T04:59:44.484Z,75.50
2022-08-22T05:02:21.476Z,74.10
2022-08-22T05:05:02.250Z,71.90
2022-08-22T05:07:56.139Z,72.40
2022-08-22T05:10:37.990Z,74.00
2022-08-22T05:13:15.740Z,74.90
2022-08-22T05:15:50.751Z,74.90
2022-08-22T05:18:30.128Z,72.00
2022-08-22T05:21:02.562Z,70.70
2022-08-22T05:23:48.778Z,72.10
2022-08-22T05:26:22.207Z,73.70
2022-08-22T05:28:57.280Z,75.40
2022-08-22T05:31:42.377Z,75.90
2022-08-22T05:34:20.274Z,74.20
2022-08-22T05:37:13.618Z,74.10
2022-08-22T05:39:47.725Z,76.20
2022-08-22T05:42:43.715Z,77.60
2022-08-22T05:45:17.559Z,79.50
2022-08-22T05:47:50.094Z,78.90
2022-08-22T05:50:29.336Z,76.20
2022-08-22T05:53:31.239Z,74.70
2022-08-22T05:56:08.236Z,76.50
2022-08-22T05:58:45.918Z,77.70
2022-08-22T06:01:17.189Z,78.20
2022-08-22T06:04:07.449Z,77.30
2022-08-22T06:07:02.507Z,77.00
2022-08-22T06:09:47.986Z,78.80
2022-08-22T06:12:22.495Z,79.80
2022-08-22T06:15:29.440Z,80.30
2022-08-22T06:18:12.667Z,81.20
2022-08-22T06:20:46.166Z,77.60
2022-08-22T06:23:30.065Z,74.00
2022-08-22T06:26:02.105Z,72.60
2022-08-22T06:28:55.308Z,72.90
2022-08-22T06:31:33.949Z,74.00
2022-08-22T06:34:06.032Z,75.60
2022-08-22T06:36:38.748Z,73.40
2022-08-22T06:39:21.201Z,70.00
2022-08-22T06:42:03.405Z,69.50
2022-08-22T06:44:36.836Z,70.80
2022-08-22T06:47:09.099Z,72.70
2022-08-22T06:49:40.726Z,73.40
2022-08-22T06:52:25.206Z,73.90
2022-08-22T06:55:03.158Z,73.10
2022-08-22T06:57:36.335Z,70.50
2022-08-22T07:00:12.740Z,71.10
2022-08-22T07:03:08.606Z,71.70
2022-08-22T07:05:40.286Z,72.00
2022-08-22T07:08:14.849Z,72.20
2022-08-22T07:10:57.210Z,72.30
2022-08-22T07:13:28.322Z,69.60
2022-08-22T07:16:02.340Z,68.20
2022-08-22T07:18:32.502Z,66.50
2022-08-22T07:21:04.872Z,66.30
2022-08-22T07:23:41.206Z,67.50
2022-08-22T07:26:18.391Z,70.20
2022-08-22T07:28:58.397Z,67.00
2022-08-22T07:31:36.289Z,65.10
2022-08-22T07:34:33.506Z,66.00
2022-08-22T07:37:37.324Z,64.70
2022-08-22T07:40:14.413Z,66.70
2022-08-22T07:43:10.915Z,66.70
2022-08-22T07:45:50.691Z,65.00
2022-08-22T07:49:08.653Z,63.60
2022-08-22T07:51:45.636Z,63.60
2022-08-22T07:54:45.778Z,64.50
2022-08-22T07:57:30.863Z,63.50
2022-08-22T08:00:01.250Z,61.30
2022-08-22T08:02:52.616Z,60.80
2022-08-22T08:05:24.531Z,63.10
2022-08-22T08:07:56.375Z,63.20
2022-08-22T08:10:32.177Z,63.30
2022-08-22T08:13:14.705Z,62.70
2022-08-22T08:15:46.355Z,62.30
2022-08-22T08:18:22.348Z,61.50
2022-08-22T08:20:54.969Z,60.70
2022-08-22T08:23:25.534Z,61.10
2022-08-22T08:26:07.700Z,60.10
2022-08-22T08:28:45.265Z,59.90
2022-08-22T08:31:28.292Z,59.20
2022-08-22T08:34:06.186Z,58.30
2022-08-22T08:36:44.931Z,58.60
2022-08-22T08:39:37.709Z,59.80
2022-08-22T08:43:10.922Z,58.00
2022-08-22T08:45:41.962Z,58.30
2022-08-22T08:48:26.998Z,58.40
2022-08-22T08:51:16.544Z,58.80
2022-08-22T08:53:53.549Z,57.80
2022-08-22T08:56:27.004Z,55.80
2022-08-22T08:59:44.321Z,56.70
2022-08-22T09:02:42.489Z,58.90
2022-08-22T09:05:32.994Z,57.10
2022-08-22T09:08:32.840Z,57.40
2022-08-22T09:11:28.289Z,57.20
2022-08-22T09:13:59.717Z,57.40
2022-08-22T09:16:51.973Z,58.20
2022-08-22T09:19:23.695Z,59.40
2022-08-22T09:22:16.258Z,59.10
2022-08-22T09:25:07.460Z,58.40
2022-08-22T09:27:48.977Z,58.70
2022-08-22T09:30:27.565Z,57.70
2022-08-22T09:33:12.447Z,57.20
2022-08-22T09:35:54.879Z,56.20
2022-08-22T09:38:35.822Z,56.60
2022-08-22T09:41:34.828Z,57.10
2022-08-22T09:44:34.297Z,55.90
2022-08-22T09:47:24.592Z,56.80
2022-08-22T09:50:17.106Z,56.70
2022-08-22T09:53:14.395Z,56.30
2022-08-22T09:55:59.035Z,56.30
2022-08-22T09:58:43.098Z,56.30
2022-08-22T10:01:33.570Z,56.00
2022-08-22T10:04:20.394Z,54.90
2022-08-22T10:06:52.121Z,59.10
2022-08-22T10:09:32.034Z,59.40
2022-08-22T10:12:12.425Z,59.60
2022-08-22T10:15:17.430Z,59.80
2022-08-22T10:18:15.845Z,60.10
2022-08-22T10:21:02.930Z,59.90
2022-08-22T10:23:46.702Z,60.10
2022-08-22T10:26:39.683Z,61.10
2022-08-22T10:29:36.227Z,60.90
2022-08-22T10:32:42.916Z,60.20
2022-08-22T10:38:00.084Z,60.00
2022-08-22T10:40:54.905Z,60.10
2022-08-22T10:44:01.538Z,60.10
2022-08-22T10:46:57.632Z,60.00
2022-08-22T10:49:57.366Z,60.50
2022-08-22T10:52:37.972Z,59.10
2022-08-22T10:55:25.010Z,58.50
2022-08-22T10:58:13.126Z,58.00
2022-08-22T11:00:54.773Z,57.60
2022-08-22T11:03:44.003Z,56.20
2022-08-22T11:06:41.752Z,55.40
2022-08-22T11:09:39.731Z,56.30
2022-08-22T11:12:19.700Z,55.30
2022-08-22T11:15:05.589Z,54.50
2022-08-22T11:17:58.845Z,52.40
2022-08-22T11:21:02.952Z,53.70
2022-08-22T11:23:49.292Z,54.00
2022-08-22T11:26:47.510Z,53.10
2022-08-22T11:29:39.173Z,54.00
2022-08-22T11:32:12.475Z,54.40
2022-08-22T11:35:10.203Z,54.20
2022-08-22T11:38:00.984Z,54.60
2022-08-22T11:40:40.864Z,54.50
2022-08-22T11:43:18.079Z,55.00
2022-08-22T11:45:57.288Z,55.20
2022-08-22T11:49:01.234Z,55.10
2022-08-22T11:52:10.758Z,54.90
2022-08-22T11:54:57.417Z,55.00
2022-08-22T11:57:25.407Z,56.20
2022-08-22T12:00:20.802Z,56.70
2022-08-22T12:03:05.314Z,57.40
2022-08-22T12:05:40.199Z,56.30
2022-08-22T12:08:14.476Z,56.30
2022-08-22T12:11:13.887Z,58.10
2022-08-22T12:14:06.004Z,57.10
2022-08-22T12:16:40.701Z,58.40
2022-08-22T12:19:32.761Z,60.80
2022-08-22T12:22:28.938Z,59.30
2022-08-22T12:25:18.046Z,59.50
2022-08-22T12:28:15.725Z,56.40
2022-08-22T12:30:57.942Z,57.60
2022-08-22T12:33:25.983Z,58.50
2022-08-22T12:36:18.314Z,61.10
2022-08-22T12:45:17.229Z,74.40
2022-08-22T12:48:12.527Z,73.60
2022-08-22T12:51:23.077Z,73.30
2022-08-22T12:54:10.910Z,76.30
2022-08-22T12:56:59.487Z,76.70
2022-08-22T12:59:27.965Z,73.10
2022-08-22T13:02:00.234Z,74.40
2022-08-22T13:04:34.099Z,74.50
2022-08-22T13:07:51.806Z,74.50
2022-08-22T13:10:29.101Z,75.50
2022-08-22T13:12:59.051Z,78.10
2022-08-22T13:15:36.965Z,77.60
2022-08-22T13:18:30.272Z,78.70
2022-08-22T13:21:04.052Z,79.50
2022-08-22T13:23:51.788Z,79.70
2022-08-22T13:26:33.777Z,80.40
2022-08-22T13:29:26.772Z,81.50
2022-08-22T13:32:00.668Z,82.40
2022-08-22T13:34:43.475Z,83.00
2022-08-22T13:37:20.203Z,84.20
2022-08-22T13:39:59.122Z,84.70
2022-08-22T13:42:31.313Z,85.00
2022-08-22T13:45:05.859Z,85.40
2022-08-22T13:47:39.563Z,84.90
2022-08-22T13:50:19.718Z,84.90
2022-08-22T13:52:56.955Z,84.90
2022-08-22T13:55:43.691Z,85.20
2022-08-22T13:58:35.458Z,85.20
2022-08-22T14:01:38.251Z,85.70
2022-08-22T14:04:31.932Z,86.30
2022-08-22T14:07:04.779Z,85.30
2022-08-22T14:10:06.721Z,85.40
2022-08-22T14:12:50.555Z,84.10
2022-08-22T14:15:25.442Z,85.20
2022-08-22T14:18:14.368Z,85.30
2022-08-22T14:20:44.394Z,85.00
2022-08-22T14:23:29.746Z,84.40
2022-08-22T14:26:02.899Z,85.60
2022-08-22T14:28:36.084Z,85.00
2022-08-22T14:31:13.668Z,84.60
2022-08-22T14:33:53.310Z,84.90
2022-08-22T14:36:27.076Z,84.50
2022-08-22T14:39:10.088Z,83.40
2022-08-22T14:41:58.645Z,82.00
2022-08-22T14:44:44.426Z,82.40
2022-08-22T14:47:55.333Z,83.30
2022-08-22T14:50:39.531Z,84.60
2022-08-22T14:53:30.897Z,86.50
2022-08-22T14:56:18.784Z,87.70
2022-08-22T14:59:00.290Z,88.20
2022-08-22T15:01:32.878Z,87.80
2022-08-22T15:04:06.446Z,87.40
2022-08-22T15:06:48.214Z,87.60
2022-08-22T15:09:36.930Z,87.30
2022-08-22T15:12:47.188Z,87.40
2022-08-22T15:15:49.723Z,87.20
2022-08-22T15:18:35.940Z,88.00
2022-08-22T15:21:21.069Z,88.00
2022-08-22T15:24:02.788Z,87.70
2022-08-22T15:26:40.128Z,87.10
2022-08-22T15:29:21.555Z,86.90
2022-08-22T15:31:55.876Z,86.10
2022-08-22T15:34:42.499Z,86.10
2022-08-22T15:37:19.421Z,85.90
2022-08-22T15:40:34.828Z,85.30
2022-08-22T15:43:34.913Z,85.30
2022-08-22T15:46:18.021Z,84.00
2022-08-22T15:49:21.651Z,81.30
2022-08-22T15:51:59.945Z,81.80
2022-08-22T15:54:51.848Z,79.90
2022-08-22T15:57:51.409Z,80.60
2022-08-22T16:00:45.087Z,81.40
2022-08-22T16:03:30.380Z,82.30
2022-08-22T16:06:08.403Z,82.70
2022-08-22T16:08:52.773Z,82.80
2022-08-22T16:11:33.422Z,83.30
2022-08-22T16:14:47.945Z,83.10
2022-08-22T16:17:30.684Z,83.80
2022-08-22T16:20:15.887Z,80.10
2022-08-22T16:22:59.579Z,78.00
2022-08-22T16:25:46.613Z,79.10
2022-08-22T16:28:57.473Z,80.00
2022-08-22T16:31:35.663Z,79.90
2022-08-22T16:34:19.178Z,79.10
2022-08-22T16:37:23.916Z,79.10
2022-08-22T16:40:19.345Z,78.90
2022-08-22T16:42:53.179Z,79.00
2022-08-22T16:45:40.084Z,79.50
2022-08-22T16:48:26.834Z,79.70
2022-08-22T16:51:19.006Z,79.30
2022-08-22T16:54:04.428Z,79.90
2022-08-22T16:56:45.898Z,79.80
2022-08-22T16:59:24.165Z,79.30
2022-08-22T17:02:11.621Z,79.70
2022-08-22T17:05:16.318Z,79.90
2022-08-22T17:08:14.452Z,79.70
2022-08-22T17:10:49.640Z,79.30
2022-08-22T17:13:26.330Z,78.90
2022-08-22T17:16:22.435Z,78.90
2022-08-22T17:19:22.700Z,79.00
2022-08-22T17:22:28.840Z,78.60
2022-08-22T17:25:12.590Z,78.40
2022-08-22T17:27:47.666Z,78.00
2022-08-22T17:30:24.405Z,77.80
2022-08-22T17:33:26.652Z,78.20
2022-08-22T17:36:26.386Z,78.70
2022-08-22T17:39:21.233Z,79.00
2022-08-22T17:42:20.866Z,79.30
2022-08-22T17:45:17.269Z,79.50
2022-08-22T17:47:55.517Z,79.70
2022-08-22T17:50:28.741Z,79.90
2022-08-22T17:53:38.551Z,80.10
2022-08-22T17:56:22.326Z,80.00
2022-08-22T17:59:05.037Z,80.50
2022-08-22T18:01:36.462Z,81.20
2022-08-22T18:04:08.317Z,79.60
2022-08-22T18:06:44.871Z,79.10
2022-08-22T18:09:30.338Z,79.30
2022-08-22T18:12:24.000Z,79.70
2022-08-22T18:15:00.371Z,80.20
2022-08-22T18:17:36.861Z,80.80
2022-08-22T18:20:17.927Z,81.30
2022-08-22T18:22:57.386Z,82.00
2022-08-22T18:25:43.760Z,82.40
2022-08-22T18:28:36.567Z,83.10
2022-08-22T18:31:09.809Z,83.70
2022-08-22T18:33:56.234Z,83.60
2022-08-22T18:36:35.495Z,83.90
2022-08-22T18:39:26.113Z,83.80
2022-08-22T18:42:10.666Z,83.70
2022-08-22T18:44:40.522Z,83.90
2022-08-22T18:47:23.568Z,83.80
2022-08-22T18:49:55.110Z,83.70
2022-08-22T18:52:29.610Z,83.70
2022-08-22T18:55:30.386Z,83.60
2022-08-22T18:58:10.014Z,83.70
2022-08-22T19:00:50.693Z,84.30
2022-08-22T19:03:25.725Z,84.50
2022-08-22T19:06:33.856Z,84.70
2022-08-22T19:09:17.901Z,85.00
2022-08-22T19:12:03.929Z,85.40
2022-08-22T19:14:54.119Z,85.40
2022-08-22T19:17:41.002Z,85.50
2022-08-22T19:20:46.130Z,85.60
2022-08-22T19:23:41.134Z,85.90
2022-08-22T19:26:36.852Z,86.40
2022-08-22T19:29:18.972Z,86.80
2022-08-22T19:31:56.824Z,87.20
2022-08-22T19:34:30.618Z,87.50
2022-08-22T19:37:30.759Z,87.60
2022-08-22T19:40:07.760Z,87.70
2022-08-22T19:42:42.416Z,87.70
2022-08-22T19:45:29.606Z,87.60
2022-08-22T19:48:14.372Z,88.00
2022-08-22T19:50:43.724Z,87.70
2022-08-22T19:53:27.422Z,86.70
2022-08-22T19:56:28.496Z,85.50
2022-08-22T19:59:09.445Z,83.80
2022-08-22T20:01:49.676Z,83.00
2022-08-22T20:04:59.558Z,82.90
2022-08-22T20:07:58.923Z,82.40
2022-08-22T20:10:45.400Z,83.10
2022-08-22T20:13:30.272Z,84.20
2022-08-22T20:16:19.407Z,85.80
2022-08-22T20:19:06.580Z,86.70
2022-08-22T20:21:41.708Z,87.30
2022-08-22T20:24:24.132Z,87.90
2022-08-22T20:27:13.507Z,88.20
2022-08-22T20:30:14.072Z,88.20
2022-08-22T20:32:51.638Z,88.10
2022-08-22T20:35:26.912Z,88.10
2022-08-22T20:38:06.697Z,87.90
2022-08-22T20:40:56.526Z,87.80
2022-08-22T20:43:37.913Z,87.00
2022-08-22T20:46:27.894Z,86.60
2022-08-22T20:48:57.592Z,86.20
2022-08-22T20:51:28.651Z,84.70
2022-08-22T20:54:16.151Z,84.00
2022-08-22T20:56:57.707Z,83.20
2022-08-22T20:59:31.518Z,82.30
2022-08-22T21:02:22.360Z,82.10
2022-08-22T21:04:53.257Z,81.90
2022-08-22T21:07:35.291Z,81.90
2022-08-22T21:10:42.984Z,81.80
2022-08-22T21:13:21.568Z,82.10
2022-08-22T21:15:59.952Z,82.10
2022-08-22T21:18:37.254Z,82.20
2022-08-22T21:21:20.880Z,82.20
2022-08-22T21:24:00.706Z,82.10
2022-08-22T21:26:31.436Z,82.20
2022-08-22T21:29:09.836Z,82.00
2022-08-22T21:31:45.186Z,80.80
2022-08-22T21:34:21.744Z,78.30
2022-08-22T21:36:52.808Z,75.40
2022-08-22T21:39:26.920Z,72.70
2022-08-22T21:42:26.854Z,73.80
2022-08-22T21:45:01.748Z,73.10
2022-08-22T21:47:30.540Z,71.20
2022-08-22T21:50:09.465Z,73.00
2022-08-22T21:52:40.581Z,71.70
2022-08-22T21:55:24.440Z,70.20
2022-08-22T21:58:07.342Z,71.40
2022-08-22T22:00:49.438Z,70.40
2022-08-22T22:03:20.932Z,68.70
2022-08-22T22:05:51.077Z,69.90
2022-08-22T22:08:22.030Z,69.60
2022-08-22T22:10:52.311Z,68.40
2022-08-22T22:13:21.283Z,70.10
2022-08-22T22:15:53.741Z,71.70
2022-08-22T22:18:25.435Z,73.40
2022-08-22T22:20:54.827Z,74.50
2022-08-22T22:23:24.728Z,75.80
2022-08-22T22:25:55.062Z,76.60
2022-08-22T22:28:26.440Z,77.40
2022-08-22T22:30:57.796Z,77.70
2022-08-22T22:33:31.681Z,78.20
2022-08-22T22:36:04.858Z,78.60
2022-08-22T22:38:33.157Z,79.20
2022-08-22T22:41:01.055Z,79.70
2022-08-22T22:43:29.479Z,80.10
2022-08-22T22:46:01.154Z,80.20
2022-08-22T22:48:29.606Z,80.70
2022-08-22T22:50:57.729Z,81.00
2022-08-22T22:53:33.866Z,81.10
2022-08-22T22:56:09.574Z,81.30
2022-08-22T22:58:38.621Z,81.40
2022-08-22T23:01:14.375Z,81.40
2022-08-22T23:03:43.694Z,81.40
2022-08-22T23:06:18.031Z,81.50
2022-08-22T23:08:46.960Z,81.90
2022-08-22T23:11:20.989Z,82.10
2022-08-22T23:13:49.785Z,81.90
2022-08-22T23:16:24.291Z,81.90
2022-08-22T23:18:52.599Z,82.20
2022-08-22T23:21:27.465Z,82.30
2022-08-22T23:24:01.131Z,81.90
2022-08-22T23:26:29.512Z,80.90
2022-08-22T23:28:58.385Z,79.40
2022-08-22T23:31:51.379Z,78.70
2022-08-22T23:34:31.620Z,78.90
2022-08-22T23:37:02.361Z,78.80
2022-08-22T23:39:35.913Z,79.10
2022-08-22T23:42:04.359Z,79.50
2022-08-22T23:44:35.008Z,79.70
2022-08-22T23:47:05.736Z,79.80
2022-08-22T23:49:34.576Z,80.10
2022-08-22T23:52:03.049Z,79.60
2022-08-22T23:54:31.500Z,79.30
2022-08-22T23:57:02.364Z,79.60
2022-08-22T23:59:34.115Z,79.60
